»·PEaware :: N973SE KSBP-KSBA

N973SE :: KSBP-KSBA

FLIGHT INFORMATION

Flight Status: Arrived
Operator: Privately registered:
United States
More flights under this callsign
Pilot: Stig E. (4778)
Aircraft: PIPER PA-28R-201 ARROW
(P28R)
More flights by this aircraft type
Origin: KSBP San Luis Co Regl
United States
Destination: KSBA Santa Barbara Mun
United States
More flights between these airports :: More routes between these airports
Route:
File this flight plan on PilotEdge
Remarks:
Altitude:
(Current/Filed)
2,500ft
Speed:
(Current/Filed)
120kts
Departed: 20-Mar-18 02:31 AM
Arrived: 20-Mar-18 03:08 AM
Distance/Time
Traveled:
62nm/0:37
Distance/Time
To Go:
Arrived

Flight Plot

Page will automatically refresh every two minutes.


Map Options




Map Legend


Flown Route
Filed Route
Departure Airport
Arrival Airport
Navaid (VOR, NDB)
Fix

Horizontal Profiles

Position Reports

Time Latitude Longitude Heading Altitude Ground
Speed
20-Mar-18 02:23 35.238940 -120.639407 180 190ft 0kts
20-Mar-18 02:24 35.238796 -120.639336 133 191ft 1kts
20-Mar-18 02:25 35.237836 -120.638850 175 194ft 10kts
20-Mar-18 02:26 35.235504 -120.635609 126 206ft 13kts
20-Mar-18 02:27 35.233204 -120.632258 224 211ft 0kts
20-Mar-18 02:28 35.233204 -120.632258 224 211ft 0kts
20-Mar-18 02:29 35.233198 -120.632265 223 211ft 1kts
20-Mar-18 02:30 35.235244 -120.637163 305 201ft 79kts
20-Mar-18 02:31 35.248155 -120.665723 256 1078ft 103kts
20-Mar-18 02:32 35.222391 -120.664109 160 1915ft 101kts
20-Mar-18 02:33 35.195478 -120.656834 163 2520ft 107kts
20-Mar-18 02:34 35.164646 -120.642383 152 2517ft 123kts
20-Mar-18 02:35 35.134589 -120.622089 147 2517ft 121kts
20-Mar-18 02:36 35.106959 -120.600341 144 2519ft 117kts
20-Mar-18 02:37 35.080094 -120.577688 143 2564ft 113kts
20-Mar-18 02:38 35.056345 -120.556998 142 3003ft 100kts
20-Mar-18 02:39 35.031416 -120.534991 142 3020ft 115kts
20-Mar-18 02:40 35.005358 -120.511870 142 3021ft 116kts
20-Mar-18 02:41 34.979231 -120.488593 142 3022ft 117kts
20-Mar-18 02:42 34.952897 -120.465096 142 3022ft 117kts
20-Mar-18 02:43 34.926473 -120.441641 142 3022ft 117kts
20-Mar-18 02:44 34.900072 -120.418068 142 3022ft 117kts
20-Mar-18 02:45 34.873641 -120.394626 142 3022ft 117kts
20-Mar-18 02:46 34.847210 -120.371051 142 3022ft 118kts
20-Mar-18 02:47 34.820645 -120.347449 142 3021ft 118kts
20-Mar-18 02:48 34.793887 -120.323887 142 3020ft 120kts
20-Mar-18 02:49 34.766679 -120.299784 142 3018ft 122kts
20-Mar-18 02:50 34.739274 -120.275478 143 3016ft 122kts
20-Mar-18 02:51 34.711728 -120.251047 143 3014ft 122kts
20-Mar-18 02:52 34.684273 -120.226718 143 3014ft 122kts
20-Mar-18 02:53 34.656840 -120.202419 143 3014ft 122kts
20-Mar-18 02:54 34.629336 -120.178070 143 3014ft 122kts
20-Mar-18 02:55 34.601931 -120.153813 143 3014ft 122kts
20-Mar-18 02:56 34.574457 -120.129496 143 3014ft 122kts
20-Mar-18 02:57 34.546926 -120.105127 143 3014ft 122kts
20-Mar-18 02:58 34.519493 -120.080845 143 3012ft 122kts
20-Mar-18 02:59 34.492058 -120.056558 143 3014ft 122kts
20-Mar-18 03:00 34.464551 -120.032209 143 3014ft 122kts
20-Mar-18 03:01 34.437780 -120.008463 143 2700ft 118kts
20-Mar-18 03:02 34.424338 -119.977373 91 2166ft 101kts
20-Mar-18 03:03 34.424447 -119.945896 85 1725ft 90kts
20-Mar-18 03:04 34.425970 -119.917316 88 1135ft 84kts
20-Mar-18 03:05 34.426663 -119.889788 89 545ft 80kts
20-Mar-18 03:06 34.427358 -119.864249 88 165ft 72kts
20-Mar-18 03:07 34.427721 -119.843837 88 12ft 38kts
20-Mar-18 03:08 34.428614 -119.838947 346 12ft 0kts
20-Mar-18 03:09 34.428614 -119.838947 346 12ft 0kts
20-Mar-18 03:10 34.428614 -119.838947 346 12ft 0kts
20-Mar-18 03:11 34.430431 -119.839502 344 12ft 7kts
20-Mar-18 03:12 34.431990 -119.839557 69 12ft 12kts

Navigation Log

Ident Type
Flight plan parsing failed, navigation log unavailable